Time;durP1;ratioP1;P1;durP2;ratioP2;P2;SDS_P1;SDS_P2;PMS_P1;PMS_P2;Temp;Humidity;BMP_temperature;BMP_pressure;BME280_temperature;BME280_humidity;BME280_pressure;Samples;Min_cycle;Max_cycle;Signal;HPM_P1;HPM_P2
2023/10/30 00:01:34;;;;;;;;;;;12.30;60.10;;;7.92;100.00;94409.44;4944649;28;19917;-50
2023/10/30 00:04:00;;;;;;;;;;;12.40;59.50;;;7.90;100.00;94409.75;4945343;28;20416;-50
2023/10/30 00:06:26;;;;;;;;;;;12.30;59.50;;;7.88;100.00;94406.56;4951036;28;19910;-53
2023/10/30 00:08:52;;;;;;;;;;;12.30;59.50;;;7.83;100.00;94412.69;4943120;28;19938;-46
2023/10/30 00:11:18;;;;;;;;;;;12.30;59.60;;;7.87;100.00;94408.44;4948050;29;19933;-46
2023/10/30 00:13:44;;;;;;;;;;;12.30;59.60;;;7.82;100.00;94410.31;4946862;28;19914;-49
2023/10/30 00:16:10;;;;;;;;;;;12.30;59.60;;;7.80;100.00;94410.59;4954201;28;19910;-46
2023/10/30 00:18:41;;;;;;;;;;;12.20;59.60;;;7.77;100.00;94423.59;4947615;28;19914;-46
2023/10/30 00:21:09;;;;;;;;;;;12.20;59.60;;;7.79;100.00;94421.47;4951946;28;19956;-47
2023/10/30 00:23:36;;;;;;;;;;;12.20;59.60;;;7.77;100.00;94419.09;4953183;28;20372;-48
2023/10/30 00:26:03;;;;;;;;;;;12.20;59.60;;;7.78;100.00;94422.53;4950371;28;20068;-47
2023/10/30 00:28:30;;;;;;;;;;;12.20;59.70;;;7.76;100.00;94419.34;4952300;28;19914;-48
2023/10/30 00:30:56;;;;;;;;;;;12.20;59.80;;;7.71;100.00;94422.03;4951046;28;20001;-49
2023/10/30 00:33:22;;;;;;;;;;;12.20;59.80;;;7.70;100.00;94423.91;4953083;28;19921;-47
2023/10/30 00:35:48;;;;;;;;;;;12.20;59.80;;;7.66;100.00;94417.56;4948782;28;20012;-46
2023/10/30 00:38:14;;;;;;;;;;;12.20;59.80;;;7.61;100.00;94422.88;4944704;28;19993;-46
2023/10/30 00:40:40;;;;;;;;;;;12.10;59.80;;;7.62;100.00;94425.28;4937587;29;19915;-46
2023/10/30 00:43:06;;;;;;;;;;;12.10;59.90;;;7.64;100.00;94423.13;4947386;28;20399;-47
2023/10/30 00:45:32;;;;;;;;;;;12.10;59.90;;;7.67;100.00;94421.00;4938675;28;20429;-50
2023/10/30 00:47:58;;;;;;;;;;;12.10;59.90;;;7.69;100.00;94424.19;4946789;28;19917;-47
2023/10/30 00:50:24;;;;;;;;;;;12.10;60.00;;;7.67;100.00;94421.78;4940617;28;19914;-47
2023/10/30 00:52:50;;;;;;;;;;;12.10;60.00;;;7.67;100.00;94415.69;4937182;28;19921;-45
2023/10/30 00:55:16;;;;;;;;;;;12.10;60.10;;;7.68;100.00;94415.44;4945662;28;19922;-47
2023/10/30 00:57:42;;;;;;;;;;;12.10;60.10;;;7.67;100.00;94419.13;4943153;28;19921;-48
2023/10/30 01:00:09;;;;;;;;;;;12.10;60.10;;;7.66;100.00;94422.88;4936371;28;20413;-48
2023/10/30 01:02:35;;;;;;;;;;;12.10;60.10;;;7.65;100.00;94421.28;4940679;28;19949;-47
2023/10/30 01:05:02;;;;;;;;;;;12.10;60.10;;;7.59;100.00;94430.34;4941535;28;19911;-45
2023/10/30 01:07:28;;;;;;;;;;;12.10;60.00;;;7.60;100.00;94445.94;4941968;28;20332;-46
2023/10/30 01:09:56;;;;;;;;;;;12.10;60.40;;;7.59;100.00;94444.38;4936109;28;19942;-45
2023/10/30 01:12:21;;;;;;;;;;;12.10;60.10;;;7.54;100.00;94444.38;4940983;28;20273;-46
2023/10/30 01:14:48;;;;;;;;;;;12.00;60.80;;;7.44;100.00;94449.75;4943842;28;19910;-46
2023/10/30 01:17:14;;;;;;;;;;;12.00;60.00;;;7.39;100.00;94461.13;4944290;28;19910;-46
2023/10/30 01:19:43;;;;;;;;;;;12.00;60.00;;;7.28;100.00;94453.53;4938315;28;19914;-51
2023/10/30 01:22:09;;;;;;;;;;;11.90;60.00;;;7.28;100.00;94459.63;4942697;28;19910;-47
2023/10/30 01:24:34;;;;;;;;;;;11.90;60.10;;;7.25;100.00;94454.84;4939579;28;19918;-50
2023/10/30 01:27:00;;;;;;;;;;;11.90;60.10;;;7.17;100.00;94448.25;4946436;28;20335;-47
2023/10/30 01:29:26;;;;;;;;;;;11.80;60.10;;;7.22;100.00;94451.97;4939338;28;19918;-46
2023/10/30 01:31:52;;;;;;;;;;;11.80;60.20;;;7.27;100.00;94443.97;4940675;28;19923;-46
2023/10/30 01:34:18;;;;;;;;;;;11.80;60.40;;;7.28;100.00;94450.88;4939463;28;20254;-47
2023/10/30 01:36:43;;;;;;;;;;;11.80;60.40;;;7.26;100.00;94450.34;4943738;28;19930;-49
2023/10/30 01:39:09;;;;;;;;;;;11.80;60.50;;;7.22;100.00;94457.25;4940219;28;20297;-48
2023/10/30 01:41:35;;;;;;;;;;;11.80;60.50;;;7.22;100.00;94463.34;4945648;28;19911;-47
2023/10/30 01:44:01;;;;;;;;;;;11.80;60.60;;;7.17;100.00;94458.03;4943085;28;19945;-45
2023/10/30 01:46:27;;;;;;;;;;;11.80;60.60;;;7.16;100.00;94459.91;4939901;28;19997;-46
2023/10/30 01:48:52;;;;;;;;;;;11.70;60.60;;;7.18;100.00;94457.00;4941543;28;19917;-46
2023/10/30 01:51:20;;;;;;;;;;;11.70;60.60;;;7.15;100.00;94449.59;4941618;28;20337;-47
2023/10/30 01:53:48;;;;;;;;;;;11.70;60.60;;;7.13;100.00;94441.91;4965915;28;19946;-45
2023/10/30 01:56:16;;;;;;;;;;;11.70;60.60;;;7.15;100.00;94447.75;4969760;28;19910;-47
2023/10/30 01:58:42;;;;;;;;;;;11.70;60.70;;;7.09;100.00;94429.50;4936570;28;20153;-49
2023/10/30 02:01:08;;;;;;;;;;;11.70;60.80;;;7.06;100.00;94435.31;4940275;28;20008;-47
2023/10/30 02:03:34;;;;;;;;;;;11.70;60.70;;;7.10;100.00;94433.72;4946751;28;20005;-48
2023/10/30 02:06:00;;;;;;;;;;;11.70;60.80;;;7.07;100.00;94423.66;4951129;28;19917;-47
2023/10/30 02:08:26;;;;;;;;;;;11.60;60.80;;;7.06;100.00;94416.78;4948390;28;20001;-46
2023/10/30 02:10:52;;;;;;;;;;;11.60;60.80;;;7.06;100.00;94424.72;4948880;28;19961;-47
2023/10/30 02:13:18;;;;;;;;;;;11.60;61.00;;;7.05;100.00;94423.94;4943640;28;19949;-46
2023/10/30 02:15:43;;;;;;;;;;;11.60;61.00;;;7.08;100.00;94420.75;4948563;28;20088;-46
2023/10/30 02:18:10;;;;;;;;;;;11.60;61.00;;;7.10;100.00;94420.47;4948179;28;19989;-48
2023/10/30 02:20:37;;;;;;;;;;;11.60;61.10;;;7.11;100.00;94417.56;4946832;28;19915;-49
2023/10/30 02:23:03;;;;;;;;;;;11.60;61.20;;;7.11;100.00;94414.09;4948088;28;19925;-47
2023/10/30 02:25:34;;;;;;;;;;;11.60;61.20;;;7.16;100.00;94409.59;4950693;28;19918;-50
2023/10/30 02:28:00;;;;;;;;;;;11.60;61.30;;;7.21;100.00;94418.56;4951278;28;20420;-47
2023/10/30 02:30:26;;;;;;;;;;;11.70;61.50;;;7.22;100.00;94409.56;4942417;28;19914;-48
2023/10/30 02:32:53;;;;;;;;;;;11.70;61.50;;;7.22;100.00;94393.69;4944206;28;20357;-46
2023/10/30 02:35:19;;;;;;;;;;;11.70;61.50;;;7.26;100.00;94410.59;4943142;28;19911;-45
2023/10/30 02:37:46;;;;;;;;;;;11.70;61.60;;;7.31;100.00;94386.75;4952773;28;19968;-46
2023/10/30 02:40:13;;;;;;;;;;;11.70;61.60;;;7.30;100.00;94374.56;4947867;28;19925;-46
2023/10/30 02:42:40;;;;;;;;;;;11.70;61.50;;;7.26;100.00;94392.06;4948884;28;19910;-46
2023/10/30 02:45:07;;;;;;;;;;;11.80;61.60;;;7.36;100.00;94384.06;4947032;28;19918;-46
2023/10/30 02:47:34;;;;;;;;;;;11.80;61.70;;;7.40;100.00;94379.81;4945853;28;19913;-48
2023/10/30 02:50:03;;;;;;;;;;;11.80;61.70;;;7.35;100.00;94383.28;4947783;28;19916;-50
2023/10/30 02:52:30;;;;;;;;;;;11.80;61.50;;;7.29;100.00;94365.03;4952432;28;19918;-45
2023/10/30 02:54:56;;;;;;;;;;;11.80;61.50;;;7.25;100.00;94362.16;4943421;28;19922;-47
2023/10/30 02:57:22;;;;;;;;;;;11.80;61.50;;;7.25;100.00;94369.31;4950191;28;19924;-46
2023/10/30 02:59:48;;;;;;;;;;;11.80;61.60;;;7.23;100.00;94364.25;4947780;28;19954;-46
2023/10/30 03:02:14;;;;;;;;;;;11.80;61.80;;;7.22;100.00;94367.19;4950189;28;19937;-47
2023/10/30 03:04:40;;;;;;;;;;;11.70;61.60;;;7.15;100.00;94381.53;4950522;28;19936;-47
2023/10/30 03:07:05;;;;;;;;;;;11.70;61.50;;;7.07;100.00;94376.78;4942038;28;19914;-46
2023/10/30 03:09:35;;;;;;;;;;;11.70;61.50;;;7.01;100.00;94377.88;4950556;28;20340;-48
2023/10/30 03:12:00;;;;;;;;;;;11.60;61.40;;;6.94;100.00;94387.97;4947283;28;19910;-50
2023/10/30 03:14:26;;;;;;;;;;;11.60;61.40;;;6.89;100.00;94388.78;4947110;28;20365;-45
2023/10/30 03:16:53;;;;;;;;;;;11.50;61.50;;;6.86;100.00;94385.88;4945634;28;19921;-49
2023/10/30 03:19:19;;;;;;;;;;;11.50;61.60;;;6.83;100.00;94392.50;4948840;28;20366;-47
2023/10/30 03:21:45;;;;;;;;;;;11.40;61.50;;;6.79;100.00;94394.09;4949716;28;19917;-48
2023/10/30 03:24:11;;;;;;;;;;;11.40;61.60;;;6.74;100.00;94388.84;4944730;28;19918;-49
2023/10/30 03:26:37;;;;;;;;;;;11.40;61.70;;;6.67;100.00;94394.38;4949438;28;19941;-48
2023/10/30 03:29:02;;;;;;;;;;;11.30;61.70;;;6.61;100.00;94394.66;4945218;28;20314;-46
2023/10/30 03:31:29;;;;;;;;;;;11.30;61.70;;;6.62;100.00;94383.81;4946627;28;19918;-48
2023/10/30 03:33:55;;;;;;;;;;;11.20;61.70;;;6.67;100.00;94381.16;4944139;28;20359;-48
2023/10/30 03:36:23;;;;;;;;;;;11.20;61.80;;;6.69;100.00;94381.69;4946504;28;20385;-47
2023/10/30 03:38:52;;;;;;;;;;;11.20;61.90;;;6.65;100.00;94380.66;4948371;28;19921;-45
2023/10/30 03:41:21;;;;;;;;;;;11.20;61.90;;;6.60;100.00;94382.50;4943346;28;20381;-46
2023/10/30 03:43:47;;;;;;;;;;;11.10;61.90;;;6.55;100.00;94375.38;4941451;28;19910;-48
2023/10/30 03:46:13;;;;;;;;;;;11.10;62.00;;;6.55;100.00;94371.91;4936792;28;19914;-47
2023/10/30 03:48:39;;;;;;;;;;;11.10;62.00;;;6.53;100.00;94379.34;4940115;28;19930;-50
2023/10/30 03:51:05;;;;;;;;;;;11.10;62.00;;;6.48;100.00;94367.69;4938325;28;19946;-47
2023/10/30 03:53:32;;;;;;;;;;;11.00;62.10;;;6.45;100.00;94372.75;4940288;28;19918;-46
2023/10/30 03:55:58;;;;;;;;;;;11.00;62.10;;;6.45;100.00;94376.16;4939907;28;20340;-47
2023/10/30 03:58:25;;;;;;;;;;;11.00;62.20;;;6.44;100.00;94376.44;4938839;28;19918;-49
2023/10/30 04:00:53;;;;;;;;;;;11.00;62.40;;;6.41;100.00;94377.78;4934528;28;28152;-46
2023/10/30 04:03:18;;;;;;;;;;;10.90;62.30;;;6.32;100.00;94375.94;4942711;28;19917;-51
2023/10/30 04:05:44;;;;;;;;;;;10.90;62.30;;;6.29;100.00;94384.41;4938729;29;19921;-51
2023/10/30 04:08:10;;;;;;;;;;;10.90;62.30;;;6.23;100.00;94379.09;4936364;29;19956;-52
2023/10/30 04:10:36;;;;;;;;;;;10.90;62.30;;;6.19;100.00;94386.00;4939415;29;19910;-46
2023/10/30 04:13:02;;;;;;;;;;;10.80;62.30;;;6.13;100.00;94387.06;4939564;29;19914;-48
2023/10/30 04:15:27;;;;;;;;;;;10.80;62.30;;;6.08;100.00;94397.66;4941751;28;20254;-53
2023/10/30 04:17:55;;;;;;;;;;;10.80;62.30;;;6.03;100.00;94387.06;4938805;29;20327;-48
2023/10/30 04:20:22;;;;;;;;;;;10.70;62.30;;;5.99;100.00;94378.88;4935336;29;19914;-47
2023/10/30 04:22:49;;;;;;;;;;;10.70;62.40;;;5.99;100.00;94386.03;4940921;29;19910;-51
2023/10/30 04:25:17;;;;;;;;;;;10.60;62.40;;;5.90;100.00;94374.34;4935507;28;19957;-45
2023/10/30 04:27:42;;;;;;;;;;;10.60;62.40;;;5.84;100.00;94375.41;4942371;29;19945;-50
2023/10/30 04:30:09;;;;;;;;;;;10.50;62.40;;;5.79;100.00;94374.34;4940080;28;20058;-46
2023/10/30 04:32:35;;;;;;;;;;;10.50;62.50;;;5.70;100.00;94368.00;4941971;28;19910;-49
2023/10/30 04:35:01;;;;;;;;;;;10.40;62.40;;;5.66;100.00;94358.22;4937380;29;19910;-46
2023/10/30 04:37:27;;;;;;;;;;;10.40;62.50;;;5.69;100.00;94360.34;4941188;28;19997;-46
2023/10/30 04:39:52;;;;;;;;;;;10.30;62.60;;;5.73;100.00;94364.81;4937912;29;19914;-47
2023/10/30 04:42:18;;;;;;;;;;;10.30;62.80;;;5.75;100.00;94357.44;4942943;29;19910;-50
2023/10/30 04:44:44;;;;;;;;;;;10.30;62.90;;;5.84;100.00;94344.50;4938894;29;19915;-48
2023/10/30 04:47:10;;;;;;;;;;;10.30;63.20;;;5.93;100.00;94352.72;4938296;29;19963;-49
2023/10/30 04:49:37;;;;;;;;;;;10.40;63.50;;;6.00;100.00;94355.88;4941395;29;20005;-47
2023/10/30 04:52:04;;;;;;;;;;;10.40;63.70;;;6.04;100.00;94354.28;4940150;28;19917;-47
2023/10/30 04:54:30;;;;;;;;;;;10.40;64.50;;;6.05;100.00;94350.59;4935008;28;19919;-48
2023/10/30 04:56:55;;;;;;;;;;;10.50;63.80;;;6.05;100.00;94358.53;4941037;29;19914;-47
2023/10/30 04:59:21;;;;;;;;;;;10.50;63.70;;;6.08;100.00;94358.00;4935421;28;20344;-51
2023/10/30 05:01:47;;;;;;;;;;;10.50;63.60;;;6.04;100.00;94362.22;4942078;28;19917;-48
2023/10/30 05:04:15;;;;;;;;;;;10.50;63.50;;;6.02;100.00;94361.69;4940160;28;19910;-48
2023/10/30 05:06:40;;;;;;;;;;;10.50;63.50;;;5.99;100.00;94354.31;4942450;28;19938;-47
2023/10/30 05:09:06;;;;;;;;;;;10.60;63.50;;;5.92;100.00;94361.66;4938474;28;20377;-44
2023/10/30 05:11:38;;;;;;;;;;;10.50;63.30;;;5.85;100.00;94355.84;4943471;28;19918;-45
2023/10/30 05:14:04;;;;;;;;;;;10.50;63.30;;;5.81;100.00;94352.94;4941421;28;19915;-50
2023/10/30 05:16:30;;;;;;;;;;;10.50;63.30;;;5.79;100.00;94350.53;4947007;28;19910;-48
2023/10/30 05:18:56;;;;;;;;;;;10.50;63.30;;;5.80;100.00;94351.38;4941063;28;20378;-49
2023/10/30 05:21:22;;;;;;;;;;;10.40;63.30;;;5.76;100.00;94347.66;4940772;28;19921;-45
2023/10/30 05:23:49;;;;;;;;;;;10.40;63.30;;;5.74;100.00;94353.22;4943191;28;19914;-46
2023/10/30 05:26:15;;;;;;;;;;;10.40;63.30;;;5.78;100.00;94353.47;4942293;28;19953;-46
2023/10/30 05:28:41;;;;;;;;;;;10.40;63.50;;;5.78;100.00;94356.91;4936353;28;19910;-48
2023/10/30 05:31:07;;;;;;;;;;;10.40;63.60;;;5.74;100.00;94350.56;4945603;28;19956;-51
2023/10/30 05:33:34;;;;;;;;;;;10.40;63.60;;;5.79;100.00;94352.41;4937444;28;19965;-46
2023/10/30 05:36:03;;;;;;;;;;;10.30;63.60;;;5.78;100.00;94359.53;4945956;28;19910;-48
2023/10/30 05:38:29;;;;;;;;;;;10.40;63.70;;;5.74;100.00;94363.00;4938724;28;19929;-47
2023/10/30 05:40:55;;;;;;;;;;;10.30;63.60;;;5.69;100.00;94363.75;4947102;28;19918;-51
2023/10/30 05:43:21;;;;;;;;;;;10.30;63.60;;;5.66;100.00;94360.84;4940009;28;19941;-46
2023/10/30 05:45:48;;;;;;;;;;;10.30;63.60;;;5.60;100.00;94357.41;4943164;28;19942;-49
2023/10/30 05:48:15;;;;;;;;;;;10.20;63.60;;;5.59;100.00;94353.19;4940774;28;19957;-45
2023/10/30 05:50:41;;;;;;;;;;;10.30;63.70;;;5.56;100.00;94351.06;4937488;28;19910;-49
2023/10/30 05:53:07;;;;;;;;;;;10.20;63.60;;;5.55;100.00;94349.50;4941109;28;19911;-46
2023/10/30 05:55:33;;;;;;;;;;;10.20;63.60;;;5.53;100.00;94347.09;4952996;28;19964;-45
2023/10/30 05:57:59;;;;;;;;;;;10.20;63.80;;;5.54;100.00;94329.41;4943878;28;19910;-49
2023/10/30 06:00:25;;;;;;;;;;;10.20;63.80;;;5.72;100.00;94320.16;4945707;28;19928;-45
2023/10/30 06:02:51;;;;;;;;;;;10.20;64.10;;;5.88;100.00;94316.47;4947801;28;19914;-46
2023/10/30 06:05:18;;;;;;;;;;;10.20;64.40;;;5.94;100.00;94320.72;4944512;28;19914;-46
2023/10/30 06:07:44;;;;;;;;;;;10.30;64.60;;;5.97;100.00;94314.13;4943265;28;19914;-48
2023/10/30 06:10:13;;;;;;;;;;;10.30;65.30;;;5.99;100.00;94326.00;4944227;28;19910;-46
2023/10/30 06:12:40;;;;;;;;;;;10.40;64.50;;;5.99;100.00;94320.72;4945720;28;19918;-46
2023/10/30 06:15:10;;;;;;;;;;;10.40;64.40;;;6.06;100.00;94328.38;4943714;28;20392;-46
2023/10/30 06:17:36;;;;;;;;;;;10.40;64.50;;;6.06;100.00;94330.22;4942771;28;20331;-48
2023/10/30 06:20:03;;;;;;;;;;;10.50;64.60;;;6.02;100.00;94329.97;4940964;28;19918;-49
2023/10/30 06:22:29;;;;;;;;;;;10.50;64.50;;;6.00;100.00;94324.16;4937335;28;20245;-48
2023/10/30 06:24:54;;;;;;;;;;;10.60;64.40;;;5.99;100.00;94333.16;4949231;28;19917;-46
2023/10/30 06:27:20;;;;;;;;;;;10.60;64.30;;;5.96;100.00;94336.31;4950136;28;20351;-45
2023/10/30 06:29:46;;;;;;;;;;;10.60;64.30;;;5.91;100.00;94329.16;4942545;28;19914;-47
2023/10/30 06:32:12;;;;;;;;;;;10.60;64.20;;;5.86;100.00;94339.75;4940965;28;20393;-48
2023/10/30 06:34:38;;;;;;;;;;;10.60;64.10;;;5.84;100.00;94338.41;4944941;28;19918;-47
2023/10/30 06:37:05;;;;;;;;;;;10.60;64.10;;;5.84;100.00;94330.47;4940021;28;20427;-46
2023/10/30 06:39:31;;;;;;;;;;;10.60;64.10;;;6.00;100.00;94326.81;4953218;28;19925;-48
2023/10/30 06:41:57;;;;;;;;;;;10.60;64.30;;;6.11;100.00;94317.00;4941025;28;19911;-52
2023/10/30 06:44:23;;;;;;;;;;;10.70;64.60;;;6.18;100.00;94317.53;4944084;28;19936;-48
2023/10/30 06:46:52;;;;;;;;;;;10.70;64.60;;;6.16;100.00;94327.56;4942577;28;19914;-46
2023/10/30 06:49:18;;;;;;;;;;;10.80;64.60;;;6.15;100.00;94328.63;4943094;28;19910;-45
2023/10/30 06:51:44;;;;;;;;;;;10.80;64.50;;;6.17;100.00;94331.78;4936257;28;19914;-47
2023/10/30 06:54:11;;;;;;;;;;;10.90;64.40;;;6.20;100.00;94333.91;4943384;28;19933;-47
2023/10/30 06:56:37;;;;;;;;;;;10.90;64.30;;;6.38;100.00;94324.63;4937312;28;19910;-46
2023/10/30 06:59:04;;;;;;;;;;;11.00;64.60;;;6.55;100.00;94329.59;4938461;28;20021;-46
2023/10/30 07:01:43;;;;;;;;;;;11.10;64.90;;;6.70;100.00;94335.63;4942086;28;19957;-46
2023/10/30 07:04:13;;;;;;;;;;;11.20;65.20;;;6.82;100.00;94331.88;4943383;28;20001;-47
2023/10/30 07:06:41;;;;;;;;;;;11.30;65.20;;;6.88;100.00;94331.59;4942426;28;19954;-46
2023/10/30 07:09:09;;;;;;;;;;;11.40;65.10;;;6.97;100.00;94325.75;4942072;28;20424;-48
2023/10/30 07:11:36;;;;;;;;;;;11.50;64.90;;;7.03;100.00;94322.78;4950461;28;19913;-47
2023/10/30 07:14:03;;;;;;;;;;;11.70;64.90;;;7.12;100.00;94323.03;4943680;28;19914;-49
2023/10/30 07:16:33;;;;;;;;;;;11.80;64.80;;;7.21;100.00;94324.03;4952061;28;20205;-46
2023/10/30 07:19:00;;;;;;;;;;;11.90;64.80;;;7.32;100.00;94320.25;4948615;28;19996;-47
2023/10/30 07:21:27;;;;;;;;;;;12.10;64.80;;;7.46;100.00;94322.28;4951229;28;19957;-46
2023/10/30 07:23:54;;;;;;;;;;;12.20;64.70;;;7.57;100.00;94327.25;4939870;28;20223;-46
2023/10/30 07:26:21;;;;;;;;;;;12.40;64.70;;;7.75;100.00;94338.25;4939243;28;20576;-45
2023/10/30 07:28:51;;;;;;;;;;;12.60;64.60;;;7.89;100.00;94324.06;4964909;28;20330;-46
2023/10/30 07:31:18;;;;;;;;;;;12.80;64.50;;;8.05;100.00;94322.13;4942275;28;19914;-47
2023/10/30 07:33:45;;;;;;;;;;;13.00;65.30;;;8.21;100.00;94329.91;4936175;28;20320;-48
2023/10/30 07:36:11;;;;;;;;;;;13.10;64.40;;;8.36;100.00;94327.09;4943771;28;19910;-47
2023/10/30 07:38:37;;;;;;;;;;;13.30;64.40;;;8.49;100.00;94323.84;4943670;28;19917;-46
2023/10/30 07:41:03;;;;;;;;;;;13.50;64.30;;;8.54;100.00;94326.44;4933983;29;20344;-48
2023/10/30 07:43:31;;;;;;;;;;;13.60;64.10;;;8.65;100.00;94326.31;4941924;28;19941;-47
2023/10/30 07:45:57;;;;;;;;;;;13.80;64.00;;;8.73;100.00;94339.75;4940233;28;19933;-47
2023/10/30 07:48:26;;;;;;;;;;;13.90;64.70;;;8.84;100.00;94332.47;4936471;28;19922;-47
2023/10/30 07:50:52;;;;;;;;;;;14.00;63.70;;;8.90;100.00;94323.38;4943841;28;19910;-48
2023/10/30 07:53:18;;;;;;;;;;;14.10;63.60;;;9.02;100.00;94323.78;4948873;28;20401;-47
2023/10/30 07:55:47;;;;;;;;;;;14.20;63.50;;;9.13;100.00;94328.94;4951778;28;19910;-47
2023/10/30 07:58:13;;;;;;;;;;;14.30;63.50;;;9.22;100.00;94317.41;4949126;28;19910;-47
2023/10/30 08:00:39;;;;;;;;;;;14.40;63.40;;;9.22;100.00;94324.56;4941509;28;19915;-47
2023/10/30 08:03:06;;;;;;;;;;;14.50;63.30;;;9.30;100.00;94321.25;4937839;28;19911;-50
2023/10/30 08:05:32;;;;;;;;;;;14.60;63.20;;;9.35;100.00;94312.44;4943683;28;20423;-46
2023/10/30 08:07:58;;;;;;;;;;;14.80;63.10;;;9.38;100.00;94314.53;4938284;28;19953;-46
2023/10/30 08:10:26;;;;;;;;;;;14.80;62.80;;;9.46;100.00;94324.50;4937364;29;19925;-48
2023/10/30 08:12:52;;;;;;;;;;;15.00;62.60;;;9.59;100.00;94318.47;4938819;29;20381;-46
2023/10/30 08:15:18;;;;;;;;;;;15.20;62.40;;;9.65;100.00;94319.16;4939056;28;20014;-47
2023/10/30 08:17:44;;;;;;;;;;;15.40;62.20;;;9.70;100.00;94319.91;4940353;29;20008;-47
2023/10/30 08:20:11;;;;;;;;;;;15.40;61.90;;;9.77;100.00;94316.88;4941927;29;19914;-47
2023/10/30 08:22:38;;;;;;;;;;;15.50;61.70;;;9.89;100.00;94325.19;4933710;29;19910;-49
2023/10/30 08:25:04;;;;;;;;;;;15.60;61.60;;;10.05;100.00;94324.94;4942391;29;19916;-49
2023/10/30 08:27:31;;;;;;;;;;;15.70;61.60;;;10.14;100.00;94323.19;4935384;28;19911;-49
2023/10/30 08:29:57;;;;;;;;;;;15.80;61.50;;;10.18;100.00;94313.53;4939110;29;19910;-48
2023/10/30 08:32:23;;;;;;;;;;;15.80;61.40;;;10.20;100.00;94316.72;4937008;28;20297;-48
2023/10/30 08:34:49;;;;;;;;;;;15.90;61.40;;;10.23;100.00;94324.09;4940021;28;19950;-52
2023/10/30 08:37:15;;;;;;;;;;;15.90;61.20;;;10.35;100.00;94324.47;4938569;28;19911;-50
2023/10/30 08:39:40;;;;;;;;;;;15.90;61.20;;;10.41;100.00;94330.50;4946719;28;19914;-49
2023/10/30 08:42:06;;;;;;;;;;;15.90;61.20;;;10.44;100.00;94305.94;4942203;28;19910;-48
2023/10/30 08:44:33;;;;;;;;;;;16.00;61.10;;;10.42;100.00;94306.22;4943494;28;20388;-46
2023/10/30 08:46:59;;;;;;;;;;;16.10;61.10;;;10.38;100.00;94307.13;4939178;28;20341;-51
2023/10/30 08:49:26;;;;;;;;;;;16.10;60.80;;;10.41;100.00;94298.56;4943559;28;20025;-51
2023/10/30 08:51:51;;;;;;;;;;;16.20;60.70;;;10.46;100.00;94295.78;4945952;28;20037;-51
2023/10/30 08:54:18;;;;;;;;;;;16.20;60.60;;;10.58;100.00;94287.31;4943661;28;20441;-51
2023/10/30 08:56:43;;;;;;;;;;;16.20;60.50;;;10.46;100.00;94287.00;4947577;28;19958;-49
2023/10/30 08:59:10;;;;;;;;;;;16.30;60.50;;;10.52;100.00;94283.16;4946148;28;19976;-52
2023/10/30 09:01:35;;;;;;;;;;;16.30;60.40;;;10.56;100.00;94274.31;4942159;28;19910;-46
2023/10/30 09:04:01;;;;;;;;;;;16.30;60.40;;;10.59;100.00;94275.56;4939455;28;19920;-52
2023/10/30 09:06:27;;;;;;;;;;;16.40;60.40;;;10.63;100.00;94257.94;4941976;28;19910;-51
2023/10/30 09:08:53;;;;;;;;;;;16.30;60.20;;;10.65;100.00;94240.56;4940329;28;19911;-50
2023/10/30 09:11:19;;;;;;;;;;;16.30;60.20;;;10.69;100.00;94240.75;4953799;28;20020;-48
2023/10/30 09:13:45;;;;;;;;;;;16.30;60.10;;;10.54;100.00;94247.19;4947360;28;19917;-47
2023/10/30 09:16:11;;;;;;;;;;;16.30;60.10;;;10.48;100.00;94244.91;4945974;28;19914;-49
2023/10/30 09:18:38;;;;;;;;;;;16.30;60.00;;;10.45;100.00;94232.97;4942338;28;20305;-49
2023/10/30 09:21:05;;;;;;;;;;;16.20;59.90;;;10.41;100.00;94235.44;4951565;28;19914;-49
2023/10/30 09:23:30;;;;;;;;;;;16.20;59.90;;;10.44;100.00;94230.63;4950058;28;20443;-46
2023/10/30 09:25:56;;;;;;;;;;;16.20;59.90;;;10.53;100.00;94226.97;4942602;28;19918;-46
2023/10/30 09:28:22;;;;;;;;;;;16.20;60.00;;;10.55;100.00;94229.31;4947002;28;20280;-47
2023/10/30 09:30:49;;;;;;;;;;;16.20;60.00;;;10.64;100.00;94230.22;4953836;28;19918;-48
2023/10/30 09:33:15;;;;;;;;;;;16.20;60.10;;;10.83;100.00;94230.09;4944524;28;20017;-47
2023/10/30 09:35:42;;;;;;;;;;;16.30;60.20;;;10.85;100.00;94227.91;4940968;28;19922;-48
2023/10/30 09:38:08;;;;;;;;;;;16.40;60.20;;;10.86;100.00;94222.28;4938223;28;19918;-50
2023/10/30 09:40:34;;;;;;;;;;;16.40;60.10;;;10.95;100.00;94233.03;4958194;28;20332;-47
2023/10/30 09:43:04;;;;;;;;;;;16.40;60.00;;;11.02;100.00;94227.28;4952437;28;20399;-47
2023/10/30 09:45:29;;;;;;;;;;;16.50;60.00;;;11.09;100.00;94228.47;4939470;28;20386;-47
2023/10/30 09:47:57;;;;;;;;;;;16.60;60.00;;;11.03;100.00;94205.69;4948260;28;19917;-47
2023/10/30 09:50:25;;;;;;;;;;;16.60;59.90;;;10.93;100.00;94215.75;4943460;28;19913;-48
2023/10/30 09:52:53;;;;;;;;;;;16.60;59.80;;;10.92;100.00;94220.31;4951696;28;19910;-49
2023/10/30 09:55:23;;;;;;;;;;;16.60;59.70;;;10.94;100.00;94220.81;4952826;28;19918;-51
2023/10/30 09:57:51;;;;;;;;;;;16.50;59.60;;;10.84;100.00;94229.81;4949729;28;20304;-47
2023/10/30 10:00:19;;;;;;;;;;;16.50;59.60;;;10.88;100.00;94224.66;4944194;28;20495;-51
2023/10/30 10:02:46;;;;;;;;;;;16.50;59.60;;;10.87;100.00;94226.53;4948306;28;20366;-48
2023/10/30 10:05:15;;;;;;;;;;;16.50;59.60;;;10.89;100.00;94226.22;4953629;28;20392;-49
2023/10/30 10:07:40;;;;;;;;;;;16.50;59.60;;;10.99;100.00;94218.00;4942166;28;20298;-49
2023/10/30 10:10:08;;;;;;;;;;;16.60;59.60;;;11.14;100.00;94211.56;4958292;28;19937;-49
2023/10/30 10:12:35;;;;;;;;;;;16.70;59.60;;;11.19;100.00;94211.47;4949558;28;19910;-49
2023/10/30 10:15:06;;;;;;;;;;;16.80;59.50;;;11.26;100.00;94205.72;4947649;28;20046;-47
2023/10/30 10:17:42;;;;;;;;;;;17.10;59.40;;;11.46;100.00;94202.56;4938100;28;19922;-47
2023/10/30 10:20:10;;;;;;;;;;;17.30;59.30;;;11.60;100.00;94202.50;4948494;28;19960;-46
2023/10/30 10:22:38;;;;;;;;;;;17.50;59.10;;;11.77;99.76;94183.94;4952672;28;20288;-47
2023/10/30 10:25:07;;;;;;;;;;;17.80;58.90;;;11.98;99.83;94175.44;4951328;28;20400;-47
2023/10/30 10:27:33;;;;;;;;;;;18.00;58.70;;;12.11;98.08;94185.22;4940060;28;19921;-46
2023/10/30 10:29:59;;;;;;;;;;;18.30;58.50;;;12.23;96.57;94187.31;4937303;28;19911;-51
2023/10/30 10:32:27;;;;;;;;;;;18.40;58.40;;;12.30;97.21;94186.88;4941494;28;20004;-48
2023/10/30 10:35:02;;;;;;;;;;;18.50;58.20;;;12.25;94.68;94174.44;4938090;28;19915;-52
2023/10/30 10:37:29;;;;;;;;;;;18.60;58.10;;;12.34;94.74;94163.78;4942611;28;19910;-47
2023/10/30 10:39:55;;;;;;;;;;;18.60;57.90;;;12.43;93.77;94154.72;4937257;28;19918;-50
2023/10/30 10:42:24;;;;;;;;;;;18.60;57.70;;;12.38;93.11;94156.72;4942089;28;20015;-53
2023/10/30 10:44:52;;;;;;;;;;;18.60;57.60;;;12.39;93.77;94166.34;4937783;28;19960;-47
2023/10/30 10:47:20;;;;;;;;;;;18.50;57.50;;;12.29;93.75;94172.75;4935502;28;19911;-47
2023/10/30 10:49:48;;;;;;;;;;;18.50;57.40;;;12.27;93.71;94157.03;4942248;28;19910;-47
2023/10/30 10:52:17;;;;;;;;;;;18.50;57.30;;;12.24;94.16;94157.63;4942190;28;20012;-48
2023/10/30 10:55:04;;;;;;;;;;;18.50;57.20;;;12.43;94.27;94161.94;4943517;28;19918;-49
2023/10/30 10:57:58;;;;;;;;;;;18.60;57.20;;;12.58;93.60;94145.47;4956682;28;19917;-49
2023/10/30 11:00:32;;;;;;;;;;;18.70;57.20;;;12.70;92.78;94153.69;4944488;28;20019;-54
2023/10/30 11:03:04;;;;;;;;;;;18.80;57.00;;;12.86;91.39;94140.66;4942153;28;19917;-49
2023/10/30 11:05:34;;;;;;;;;;;19.00;57.10;;;13.00;90.94;94143.16;4952756;28;19914;-49
2023/10/30 11:08:26;;;;;;;;;;;19.10;57.10;;;13.12;89.80;94137.97;4950292;28;19910;-47
2023/10/30 11:11:00;;;;;;;;;;;19.20;56.90;;;13.33;88.25;94142.72;4943408;28;19989;-47
2023/10/30 11:13:31;;;;;;;;;;;19.40;56.90;;;13.36;88.17;94150.13;4949394;28;20065;-48
2023/10/30 11:16:28;;;;;;;;;;;19.50;56.70;;;13.45;87.28;94147.44;4939313;28;20008;-47